Time;durP1;ratioP1;P1;durP2;ratioP2;P2;SDS_P1;SDS_P2;PMS_P1;PMS_P2;Temp;Humidity;BMP_temperature;BMP_pressure;BME280_temperature;BME280_humidity;BME280_pressure;Samples;Min_cycle;Max_cycle;Signal;HPM_P1;HPM_P2
2022/10/08 00:01:29;;;;;;;;;;;9.30;99.90;;;;;;5093633;28;20225;-75
2022/10/08 00:03:56;;;;;;;;;;;9.30;99.90;;;;;;5093669;28;19908;-76
2022/10/08 00:06:31;;;;;;;;;;;9.30;99.90;;;;;;5093563;28;19908;-76
2022/10/08 00:09:04;;;;;;;;;;;9.30;99.90;;;;;;5094047;28;19916;-75
2022/10/08 00:11:31;;;;;;;;;;;9.20;99.90;;;;;;5093027;28;19985;-75
2022/10/08 00:13:57;;;;;;;;;;;9.30;99.90;;;;;;5094295;28;19912;-76
2022/10/08 00:16:25;;;;;;;;;;;9.20;99.90;;;;;;5092563;28;19908;-76
2022/10/08 00:18:52;;;;;;;;;;;9.30;99.90;;;;;;5094018;28;19915;-75
2022/10/08 00:21:20;;;;;;;;;;;9.20;99.90;;;;;;5093865;28;19912;-75
2022/10/08 00:23:46;;;;;;;;;;;9.20;99.90;;;;;;5094319;28;20008;-75
2022/10/08 00:26:11;;;;;;;;;;;9.30;99.90;;;;;;5093730;28;19962;-75
2022/10/08 00:28:40;;;;;;;;;;;9.30;99.90;;;;;;5094191;28;19916;-76
2022/10/08 00:31:10;;;;;;;;;;;9.30;99.90;;;;;;5094010;28;19973;-76
2022/10/08 00:33:36;;;;;;;;;;;9.30;99.90;;;;;;5093847;28;19915;-76
2022/10/08 00:36:02;;;;;;;;;;;9.30;99.90;;;;;;5094000;28;19977;-76
2022/10/08 00:38:28;;;;;;;;;;;9.30;99.90;;;;;;5093608;28;20265;-76
2022/10/08 00:40:53;;;;;;;;;;;9.30;99.90;;;;;;5093824;28;19908;-76
2022/10/08 00:43:35;;;;;;;;;;;9.30;99.90;;;;;;5093029;28;20007;-76
2022/10/08 00:46:01;;;;;;;;;;;9.30;99.90;;;;;;5092712;28;19961;-76
2022/10/08 00:48:27;;;;;;;;;;;9.30;99.90;;;;;;5093236;28;19916;-76
2022/10/08 00:50:52;;;;;;;;;;;9.30;99.90;;;;;;5093487;28;19965;-76
2022/10/08 00:53:18;;;;;;;;;;;9.20;99.90;;;;;;5093344;28;20455;-76
2022/10/08 00:55:44;;;;;;;;;;;9.20;99.90;;;;;;5093657;28;19915;-75
2022/10/08 00:58:12;;;;;;;;;;;9.20;99.90;;;;;;5093866;28;19953;-76
2022/10/08 01:00:38;;;;;;;;;;;9.30;99.90;;;;;;5092653;28;19908;-76
2022/10/08 01:03:05;;;;;;;;;;;9.20;99.90;;;;;;5093706;28;19915;-76
2022/10/08 01:05:39;;;;;;;;;;;9.20;99.90;;;;;;5092757;28;20357;-76
2022/10/08 01:08:11;;;;;;;;;;;9.30;99.90;;;;;;5093740;28;19960;-76
2022/10/08 01:10:37;;;;;;;;;;;9.20;99.90;;;;;;5092712;28;20238;-75
2022/10/08 01:13:02;;;;;;;;;;;9.30;99.90;;;;;;5093685;28;19915;-75
2022/10/08 01:15:39;;;;;;;;;;;9.20;99.90;;;;;;5093186;28;19908;-75
2022/10/08 01:18:09;;;;;;;;;;;9.30;99.90;;;;;;5093391;28;19969;-75
2022/10/08 01:20:37;;;;;;;;;;;9.30;99.90;;;;;;5091422;28;20479;-76
2022/10/08 01:23:03;;;;;;;;;;;9.30;99.90;;;;;;5093183;28;19908;-75
2022/10/08 01:25:31;;;;;;;;;;;9.20;99.90;;;;;;5092746;28;19908;-75
2022/10/08 01:28:06;;;;;;;;;;;9.20;99.90;;;;;;5093258;28;19958;-76
2022/10/08 01:30:33;;;;;;;;;;;9.20;99.90;;;;;;5092682;28;20016;-75
2022/10/08 01:33:01;;;;;;;;;;;9.20;99.90;;;;;;5092988;28;19977;-76
2022/10/08 01:35:29;;;;;;;;;;;9.20;99.90;;;;;;5092580;28;19965;-76
2022/10/08 01:37:58;;;;;;;;;;;9.10;99.90;;;;;;5092855;28;20003;-76
2022/10/08 01:40:26;;;;;;;;;;;9.10;99.90;;;;;;5092548;28;20002;-76
2022/10/08 01:42:52;;;;;;;;;;;9.10;99.90;;;;;;5092689;28;20063;-74
2022/10/08 01:45:23;;;;;;;;;;;9.10;99.90;;;;;;5092608;28;19908;-75
2022/10/08 01:47:50;;;;;;;;;;;9.10;99.90;;;;;;5093577;28;20012;-76
2022/10/08 01:50:29;;;;;;;;;;;9.00;99.90;;;;;;5092619;28;19975;-76
2022/10/08 01:52:57;;;;;;;;;;;9.00;99.90;;;;;;5092693;28;20284;-76
2022/10/08 01:55:32;;;;;;;;;;;9.00;99.90;;;;;;5092316;28;19986;-76
2022/10/08 01:58:00;;;;;;;;;;;9.00;99.90;;;;;;5093023;28;19908;-76
2022/10/08 02:00:26;;;;;;;;;;;9.00;99.90;;;;;;5091983;28;19966;-76
2022/10/08 02:02:53;;;;;;;;;;;9.00;99.90;;;;;;5092977;28;20283;-76
2022/10/08 02:05:20;;;;;;;;;;;9.00;99.90;;;;;;5092351;28;19961;-76
2022/10/08 02:07:46;;;;;;;;;;;9.00;99.90;;;;;;5091563;28;19909;-76
2022/10/08 02:10:13;;;;;;;;;;;8.90;99.90;;;;;;5092466;28;19969;-76
2022/10/08 02:12:39;;;;;;;;;;;8.90;99.90;;;;;;5095279;28;19912;-76
2022/10/08 02:15:12;;;;;;;;;;;8.90;99.90;;;;;;5096940;28;19951;-76
2022/10/08 02:17:38;;;;;;;;;;;8.90;99.90;;;;;;5096221;28;19904;-76
2022/10/08 02:20:17;;;;;;;;;;;8.90;99.90;;;;;;5096534;28;19931;-76
2022/10/08 02:22:50;;;;;;;;;;;8.90;99.90;;;;;;5096368;28;19908;-76
2022/10/08 02:25:19;;;;;;;;;;;8.90;99.90;;;;;;5096734;28;19957;-75
2022/10/08 02:28:04;;;;;;;;;;;8.90;99.90;;;;;;5096526;28;19908;-76
2022/10/08 02:30:33;;;;;;;;;;;8.80;99.90;;;;;;5094735;28;20365;-76
2022/10/08 02:33:01;;;;;;;;;;;8.80;99.90;;;;;;5096503;28;19943;-76
2022/10/08 02:35:38;;;;;;;;;;;8.80;99.90;;;;;;5095981;28;19919;-75
2022/10/08 02:38:16;;;;;;;;;;;8.70;99.90;;;;;;5096380;28;19908;-75
2022/10/08 02:40:43;;;;;;;;;;;8.80;99.90;;;;;;5095709;28;20003;-76
2022/10/08 02:43:11;;;;;;;;;;;8.70;99.90;;;;;;5095963;28;19920;-76
2022/10/08 02:45:40;;;;;;;;;;;8.70;99.90;;;;;;5095633;28;19919;-75
2022/10/08 02:48:09;;;;;;;;;;;8.70;99.90;;;;;;5096234;28;19951;-75
2022/10/08 02:50:35;;;;;;;;;;;8.70;99.90;;;;;;5095990;28;20003;-75
2022/10/08 02:53:01;;;;;;;;;;;8.60;99.90;;;;;;5096246;28;19908;-76
2022/10/08 02:55:46;;;;;;;;;;;8.70;99.90;;;;;;5094346;28;19919;-74
2022/10/08 02:58:12;;;;;;;;;;;8.70;99.90;;;;;;5094797;28;19916;-75
2022/10/08 03:00:40;;;;;;;;;;;8.60;99.90;;;;;;5095166;28;19986;-76
2022/10/08 03:03:12;;;;;;;;;;;8.50;99.90;;;;;;5096203;28;19962;-75
2022/10/08 03:05:39;;;;;;;;;;;8.50;99.90;;;;;;5095390;28;19912;-75
2022/10/08 03:08:06;;;;;;;;;;;8.60;99.90;;;;;;5095833;28;19915;-76
2022/10/08 03:10:33;;;;;;;;;;;8.50;99.90;;;;;;5095633;28;19919;-75
2022/10/08 03:13:00;;;;;;;;;;;8.50;99.90;;;;;;5095821;28;19954;-75
2022/10/08 03:15:26;;;;;;;;;;;8.50;99.90;;;;;;5093950;28;20323;-75
2022/10/08 03:17:52;;;;;;;;;;;8.50;99.90;;;;;;5095775;28;19912;-77
2022/10/08 03:20:18;;;;;;;;;;;8.50;99.90;;;;;;5095594;28;19919;-76
2022/10/08 03:22:43;;;;;;;;;;;8.50;99.90;;;;;;5094434;28;20127;-76
2022/10/08 03:25:09;;;;;;;;;;;8.50;99.90;;;;;;5095225;28;20250;-75
2022/10/08 03:27:34;;;;;;;;;;;8.50;99.90;;;;;;5095026;28;19970;-75
2022/10/08 03:30:01;;;;;;;;;;;8.40;99.90;;;;;;5095443;28;19912;-76
2022/10/08 03:32:26;;;;;;;;;;;8.40;99.90;;;;;;5094869;28;19917;-74
2022/10/08 03:34:52;;;;;;;;;;;8.40;99.90;;;;;;5095388;28;20281;-75
2022/10/08 03:37:18;;;;;;;;;;;8.40;99.90;;;;;;5095337;28;19909;-75
2022/10/08 03:39:44;;;;;;;;;;;8.30;99.90;;;;;;5093409;28;19903;-75
2022/10/08 03:42:10;;;;;;;;;;;8.30;99.90;;;;;;5095207;28;19914;-75
2022/10/08 03:44:35;;;;;;;;;;;8.30;99.90;;;;;;5094041;28;19920;-75
2022/10/08 03:47:01;;;;;;;;;;;8.30;99.90;;;;;;5093674;28;19916;-75
2022/10/08 03:49:27;;;;;;;;;;;8.30;99.90;;;;;;5094759;28;19916;-75
2022/10/08 03:51:52;;;;;;;;;;;8.30;99.90;;;;;;5095149;28;20002;-75
2022/10/08 03:54:18;;;;;;;;;;;8.20;99.90;;;;;;5095178;28;19966;-76
2022/10/08 03:56:43;;;;;;;;;;;8.30;99.90;;;;;;5094381;28;19908;-77
2022/10/08 03:59:09;;;;;;;;;;;8.20;99.90;;;;;;5094681;28;19908;-75
2022/10/08 04:01:35;;;;;;;;;;;8.20;99.90;;;;;;5094219;28;19915;-75
2022/10/08 04:04:00;;;;;;;;;;;8.20;99.90;;;;;;5094458;28;20369;-76
2022/10/08 04:06:26;;;;;;;;;;;8.20;99.90;;;;;;5094613;28;19914;-75
2022/10/08 04:08:52;;;;;;;;;;;8.20;99.90;;;;;;5094476;28;19912;-76
2022/10/08 04:11:18;;;;;;;;;;;8.20;99.90;;;;;;5094548;28;20315;-76
2022/10/08 04:13:43;;;;;;;;;;;8.10;99.90;;;;;;5094120;28;19995;-75
2022/10/08 04:16:11;;;;;;;;;;;8.10;99.90;;;;;;5094163;28;19942;-75
2022/10/08 04:18:36;;;;;;;;;;;8.10;99.90;;;;;;5094104;28;19915;-76
2022/10/08 04:21:07;;;;;;;;;;;8.10;99.90;;;;;;5094677;28;19912;-76
2022/10/08 04:23:33;;;;;;;;;;;8.10;99.90;;;;;;5093587;28;19908;-76
2022/10/08 04:25:59;;;;;;;;;;;8.10;99.90;;;;;;5094768;28;19915;-76
2022/10/08 04:28:24;;;;;;;;;;;8.10;99.90;;;;;;5094078;28;19908;-76
2022/10/08 04:30:57;;;;;;;;;;;8.10;99.90;;;;;;5093460;28;19958;-76
2022/10/08 04:33:23;;;;;;;;;;;8.00;99.90;;;;;;5094296;28;19934;-76
2022/10/08 04:35:48;;;;;;;;;;;8.00;99.90;;;;;;5092764;28;19904;-76
2022/10/08 04:38:14;;;;;;;;;;;8.00;99.90;;;;;;5094516;28;19931;-76
2022/10/08 04:40:40;;;;;;;;;;;7.90;99.90;;;;;;5093348;28;19909;-76
2022/10/08 04:43:05;;;;;;;;;;;7.90;99.90;;;;;;5093701;28;19927;-76
2022/10/08 04:45:31;;;;;;;;;;;7.90;99.90;;;;;;5093208;28;19908;-75
2022/10/08 04:47:56;;;;;;;;;;;7.90;99.90;;;;;;5094064;28;20264;-75
2022/10/08 04:50:22;;;;;;;;;;;7.90;99.90;;;;;;5093891;28;19918;-76
2022/10/08 04:52:48;;;;;;;;;;;7.90;99.90;;;;;;5093384;28;19912;-75
2022/10/08 04:55:13;;;;;;;;;;;7.90;99.90;;;;;;5093670;28;19915;-76
2022/10/08 04:57:39;;;;;;;;;;;7.90;99.90;;;;;;5093273;28;19908;-74
2022/10/08 05:00:05;;;;;;;;;;;7.80;99.90;;;;;;5094075;28;19908;-76
2022/10/08 05:02:31;;;;;;;;;;;7.80;99.90;;;;;;5093125;28;19931;-75
2022/10/08 05:04:56;;;;;;;;;;;7.80;99.90;;;;;;5093581;28;19915;-76
2022/10/08 05:07:23;;;;;;;;;;;7.80;99.90;;;;;;5093636;28;19908;-75
2022/10/08 05:09:49;;;;;;;;;;;7.80;99.90;;;;;;5091543;28;20351;-75
2022/10/08 05:12:14;;;;;;;;;;;7.80;99.90;;;;;;5093558;28;19916;-76
2022/10/08 05:14:40;;;;;;;;;;;7.80;99.90;;;;;;5092927;28;20250;-75
2022/10/08 05:17:05;;;;;;;;;;;7.70;99.90;;;;;;5093080;28;20003;-76
2022/10/08 05:19:31;;;;;;;;;;;7.80;99.90;;;;;;5093166;28;19970;-75
2022/10/08 05:21:56;;;;;;;;;;;7.80;99.90;;;;;;5092955;28;19919;-76
2022/10/08 05:24:22;;;;;;;;;;;7.80;99.90;;;;;;5093714;28;19908;-76
2022/10/08 05:26:50;;;;;;;;;;;7.80;99.90;;;;;;5092787;28;20306;-75
2022/10/08 05:29:16;;;;;;;;;;;7.80;99.90;;;;;;5093086;28;19919;-77
2022/10/08 05:31:42;;;;;;;;;;;7.80;99.90;;;;;;5092490;28;19912;-74
2022/10/08 05:34:07;;;;;;;;;;;7.80;99.90;;;;;;5093386;28;19953;-75
2022/10/08 05:36:33;;;;;;;;;;;7.70;99.90;;;;;;5092797;28;20357;-75
2022/10/08 05:39:00;;;;;;;;;;;7.70;99.90;;;;;;5092929;28;19987;-75
2022/10/08 05:41:26;;;;;;;;;;;7.70;99.90;;;;;;5092058;28;20007;-75
2022/10/08 05:43:52;;;;;;;;;;;7.70;99.90;;;;;;5090881;28;20032;-75
2022/10/08 05:46:18;;;;;;;;;;;7.70;99.90;;;;;;5091333;28;19951;-76
2022/10/08 05:48:43;;;;;;;;;;;7.70;99.90;;;;;;5092570;28;19912;-76
2022/10/08 05:51:10;;;;;;;;;;;7.70;99.90;;;;;;5092773;28;19918;-76
2022/10/08 05:53:37;;;;;;;;;;;7.70;99.90;;;;;;5092744;28;20243;-75
2022/10/08 05:56:04;;;;;;;;;;;7.70;99.90;;;;;;5091646;28;20280;-76
2022/10/08 05:58:30;;;;;;;;;;;7.70;99.90;;;;;;5092963;28;20346;-75
2022/10/08 06:00:56;;;;;;;;;;;7.70;99.90;;;;;;5092286;28;19916;-75
2022/10/08 06:03:22;;;;;;;;;;;7.70;99.90;;;;;;5093139;28;19916;-76
2022/10/08 06:05:47;;;;;;;;;;;7.70;99.90;;;;;;5091897;28;19916;-75
2022/10/08 06:08:13;;;;;;;;;;;7.60;99.90;;;;;;5092565;28;19991;-75
2022/10/08 06:10:46;;;;;;;;;;;7.60;99.90;;;;;;5092314;28;19912;-75
2022/10/08 06:13:13;;;;;;;;;;;7.60;99.90;;;;;;5092808;28;20006;-75
2022/10/08 06:15:38;;;;;;;;;;;7.50;99.90;;;;;;5092265;28;19915;-75
2022/10/08 06:18:04;;;;;;;;;;;7.50;99.90;;;;;;5092243;28;19908;-75
2022/10/08 06:20:30;;;;;;;;;;;7.50;99.90;;;;;;5093094;28;19915;-75
2022/10/08 06:22:56;;;;;;;;;;;7.50;99.90;;;;;;5092077;28;19999;-75
2022/10/08 06:25:21;;;;;;;;;;;7.50;99.90;;;;;;5092705;28;19951;-75
2022/10/08 06:27:47;;;;;;;;;;;7.60;99.90;;;;;;5091797;28;19912;-75
2022/10/08 06:30:12;;;;;;;;;;;7.60;99.90;;;;;;5092667;28;19919;-75
2022/10/08 06:32:38;;;;;;;;;;;7.60;99.90;;;;;;5091940;28;19912;-74
2022/10/08 06:35:04;;;;;;;;;;;7.60;99.90;;;;;;5092466;28;19908;-74
2022/10/08 06:37:29;;;;;;;;;;;7.70;99.90;;;;;;5092652;28;20334;-75
2022/10/08 06:39:55;;;;;;;;;;;7.70;99.90;;;;;;5091990;28;20783;-75
2022/10/08 06:42:20;;;;;;;;;;;7.70;99.90;;;;;;5092424;28;20323;-76
2022/10/08 06:44:46;;;;;;;;;;;7.70;99.90;;;;;;5091578;28;19927;-75
2022/10/08 06:47:11;;;;;;;;;;;7.70;99.90;;;;;;5092454;28;19915;-75
2022/10/08 06:49:38;;;;;;;;;;;7.70;99.90;;;;;;5092405;28;19916;-75
2022/10/08 06:52:04;;;;;;;;;;;7.70;99.90;;;;;;5092713;28;19965;-75
2022/10/08 06:54:29;;;;;;;;;;;7.80;99.90;;;;;;5092373;28;19991;-75
2022/10/08 06:56:55;;;;;;;;;;;7.80;99.90;;;;;;5091915;28;19908;-76
2022/10/08 06:59:20;;;;;;;;;;;7.90;99.90;;;;;;5094925;28;19908;-75
2022/10/08 07:01:46;;;;;;;;;;;8.00;99.90;;;;;;5095489;28;19908;-75
2022/10/08 07:04:12;;;;;;;;;;;8.00;99.90;;;;;;5095830;28;20026;-75
2022/10/08 07:06:37;;;;;;;;;;;8.00;99.90;;;;;;5095903;28;20289;-75
2022/10/08 07:09:03;;;;;;;;;;;8.10;99.90;;;;;;5095053;28;19934;-75
2022/10/08 07:11:30;;;;;;;;;;;8.10;99.90;;;;;;5095855;28;19958;-75
2022/10/08 07:13:56;;;;;;;;;;;8.10;99.90;;;;;;5093804;28;19934;-75
2022/10/08 07:16:23;;;;;;;;;;;8.20;99.90;;;;;;5095636;28;19912;-75
2022/10/08 07:18:49;;;;;;;;;;;8.20;99.90;;;;;;5093484;28;19909;-75
2022/10/08 07:21:16;;;;;;;;;;;8.20;99.90;;;;;;5095318;28;19955;-76
2022/10/08 07:23:42;;;;;;;;;;;8.30;99.90;;;;;;5094794;28;20424;-75
2022/10/08 07:26:10;;;;;;;;;;;8.30;99.90;;;;;;5095403;28;19948;-75
2022/10/08 07:28:37;;;;;;;;;;;8.30;99.90;;;;;;5095158;28;19912;-76
2022/10/08 07:31:06;;;;;;;;;;;8.40;99.90;;;;;;5094608;28;19912;-76
2022/10/08 07:33:32;;;;;;;;;;;8.50;99.90;;;;;;5095139;28;19911;-75
2022/10/08 07:36:05;;;;;;;;;;;8.60;99.90;;;;;;5094563;28;20361;-75
2022/10/08 07:38:30;;;;;;;;;;;8.70;99.90;;;;;;5095099;28;20367;-75
2022/10/08 07:40:56;;;;;;;;;;;8.80;99.90;;;;;;5094950;28;19908;-75
2022/10/08 07:43:21;;;;;;;;;;;8.80;99.90;;;;;;5094953;28;20308;-75
2022/10/08 07:45:48;;;;;;;;;;;8.90;99.90;;;;;;5094494;28;19919;-75
2022/10/08 07:48:15;;;;;;;;;;;8.90;99.90;;;;;;5093274;28;19915;-75
2022/10/08 07:50:40;;;;;;;;;;;9.00;99.90;;;;;;5094887;28;19912;-75
2022/10/08 07:53:06;;;;;;;;;;;9.10;99.90;;;;;;5095244;28;20002;-75
2022/10/08 07:55:32;;;;;;;;;;;9.20;99.90;;;;;;5094952;28;19908;-75
2022/10/08 07:57:57;;;;;;;;;;;9.30;99.90;;;;;;5094608;28;19912;-75
2022/10/08 08:00:23;;;;;;;;;;;9.40;99.90;;;;;;5094830;28;19911;-74
2022/10/08 08:02:49;;;;;;;;;;;9.60;99.90;;;;;;5094331;28;20007;-75
2022/10/08 08:05:14;;;;;;;;;;;9.70;99.90;;;;;;5094453;28;19912;-75
2022/10/08 08:07:40;;;;;;;;;;;9.80;99.90;;;;;;5093860;28;20290;-75
2022/10/08 08:10:06;;;;;;;;;;;9.90;99.90;;;;;;5091719;28;20422;-76
2022/10/08 08:12:31;;;;;;;;;;;10.00;99.90;;;;;;5094398;28;19912;-75
2022/10/08 08:14:57;;;;;;;;;;;10.10;99.90;;;;;;5093715;28;20017;-75
2022/10/08 08:17:22;;;;;;;;;;;10.20;99.90;;;;;;5094607;28;19908;-75
2022/10/08 08:19:48;;;;;;;;;;;10.30;99.90;;;;;;5094165;28;19973;-75
2022/10/08 08:22:13;;;;;;;;;;;10.40;99.90;;;;;;5094168;28;19909;-74
2022/10/08 08:24:39;;;;;;;;;;;10.50;99.90;;;;;;5094322;28;19914;-75
2022/10/08 08:27:04;;;;;;;;;;;10.70;99.90;;;;;;5092390;28;20462;-74
2022/10/08 08:29:30;;;;;;;;;;;10.80;99.90;;;;;;5094274;28;19912;-75
2022/10/08 08:31:56;;;;;;;;;;;10.90;99.90;;;;;;5093697;28;20038;-74
2022/10/08 08:34:23;;;;;;;;;;;11.00;99.90;;;;;;5092798;28;19930;-75
2022/10/08 08:36:50;;;;;;;;;;;11.00;99.90;;;;;;5093418;28;19909;-74
2022/10/08 08:39:16;;;;;;;;;;;11.10;99.90;;;;;;5093910;28;19912;-75
2022/10/08 08:41:45;;;;;;;;;;;11.20;99.90;;;;;;5093773;28;19908;-75
2022/10/08 08:44:16;;;;;;;;;;;11.20;99.90;;;;;;5092288;28;19927;-74
2022/10/08 08:46:49;;;;;;;;;;;11.30;99.90;;;;;;5094059;28;19908;-75
2022/10/08 08:49:17;;;;;;;;;;;11.30;99.90;;;;;;5093618;28;19912;-75
2022/10/08 08:51:43;;;;;;;;;;;11.40;99.90;;;;;;5093725;28;19912;-75
2022/10/08 08:54:09;;;;;;;;;;;11.50;99.90;;;;;;5093232;28;19908;-75
2022/10/08 08:56:34;;;;;;;;;;;11.60;99.90;;;;;;5093783;28;19910;-75
2022/10/08 08:59:04;;;;;;;;;;;11.60;99.90;;;;;;5093132;28;19909;-75
2022/10/08 09:01:35;;;;;;;;;;;11.70;99.90;;;;;;5093614;28;19908;-76
2022/10/08 09:04:06;;;;;;;;;;;11.60;99.90;;;;;;5093050;28;19930;-76
2022/10/08 09:06:32;;;;;;;;;;;11.80;99.90;;;;;;5092406;28;19951;-76
2022/10/08 09:09:00;;;;;;;;;;;11.80;99.90;;;;;;5092896;28;19965;-75
2022/10/08 09:11:27;;;;;;;;;;;11.90;99.90;;;;;;5093347;28;20353;-75
2022/10/08 09:14:06;;;;;;;;;;;12.00;99.90;;;;;;5092837;28;20025;-75
2022/10/08 09:16:32;;;;;;;;;;;12.00;99.90;;;;;;5093641;28;19915;-74
2022/10/08 09:18:58;;;;;;;;;;;12.10;99.90;;;;;;5092511;28;19908;-76
2022/10/08 09:21:24;;;;;;;;;;;12.20;99.90;;;;;;5092186;28;19915;-76
2022/10/08 09:23:49;;;;;;;;;;;12.20;99.90;;;;;;5092838;28;20007;-74
2022/10/08 09:26:20;;;;;;;;;;;12.20;99.90;;;;;;5093332;28;20273;-75
2022/10/08 09:28:52;;;;;;;;;;;12.20;99.90;;;;;;5093042;28;19912;-74
2022/10/08 09:31:23;;;;;;;;;;;12.30;99.90;;;;;;5093119;28;20007;-75
2022/10/08 09:33:53;;;;;;;;;;;12.30;99.90;;;;;;5093342;28;20416;-75
2022/10/08 09:36:34;;;;;;;;;;;12.40;99.90;;;;;;5092941;28;19991;-76
2022/10/08 09:39:00;;;;;;;;;;;12.40;99.90;;;;;;5092934;28;19908;-76
2022/10/08 09:41:27;;;;;;;;;;;12.50;99.90;;;;;;5093123;28;19969;-76
2022/10/08 09:44:10;;;;;;;;;;;12.60;99.90;;;;;;5091983;28;19920;-75
2022/10/08 09:46:35;;;;;;;;;;;12.50;99.90;;;;;;5091638;28;20012;-74
2022/10/08 09:49:20;;;;;;;;;;;12.70;99.90;;;;;;5092129;28;19963;-73
2022/10/08 09:51:46;;;;;;;;;;;12.60;99.90;;;;;;5092854;28;19912;-74
2022/10/08 09:54:14;;;;;;;;;;;12.70;99.90;;;;;;5091811;28;20392;-74
2022/10/08 09:56:40;;;;;;;;;;;12.70;99.90;;;;;;5092594;28;19908;-74
2022/10/08 09:59:06;;;;;;;;;;;12.70;99.90;;;;;;5092071;28;20003;-75
2022/10/08 10:01:31;;;;;;;;;;;12.80;99.90;;;;;;5092851;28;19934;-75
2022/10/08 10:03:58;;;;;;;;;;;12.70;99.90;;;;;;5091692;28;19968;-75
2022/10/08 10:06:37;;;;;;;;;;;12.80;99.90;;;;;;5092666;28;19912;-75
2022/10/08 10:09:21;;;;;;;;;;;12.80;99.90;;;;;;5092426;28;20006;-75
2022/10/08 10:11:53;;;;;;;;;;;12.80;99.90;;;;;;5092521;28;19945;-74
2022/10/08 10:14:21;;;;;;;;;;;12.90;99.90;;;;;;5092430;28;19908;-75
2022/10/08 10:16:49;;;;;;;;;;;12.90;99.90;;;;;;5092048;28;20288;-75
2022/10/08 10:19:17;;;;;;;;;;;12.90;99.90;;;;;;5091947;28;19908;-75
2022/10/08 10:21:53;;;;;;;;;;;12.90;99.90;;;;;;5092585;28;19908;-75
2022/10/08 10:24:19;;;;;;;;;;;12.90;99.90;;;;;;5093001;28;19915;-75
2022/10/08 10:26:45;;;;;;;;;;;13.00;99.90;;;;;;5092707;28;20360;-75
2022/10/08 10:29:16;;;;;;;;;;;13.00;99.90;;;;;;5091897;28;20456;-75
2022/10/08 10:31:44;;;;;;;;;;;13.10;99.90;;;;;;5092356;28;19918;-76
2022/10/08 10:34:29;;;;;;;;;;;13.10;99.90;;;;;;5092832;28;19908;-76
2022/10/08 10:36:56;;;;;;;;;;;13.10;99.90;;;;;;5096133;28;20357;-75
2022/10/08 10:39:21;;;;;;;;;;;13.20;99.90;;;;;;5096126;28;20361;-76
2022/10/08 10:41:51;;;;;;;;;;;13.30;99.90;;;;;;5095070;28;19926;-76
2022/10/08 10:44:23;;;;;;;;;;;13.30;99.90;;;;;;5095846;28;20407;-75
2022/10/08 10:46:54;;;;;;;;;;;13.30;99.90;;;;;;5096493;28;19915;-75
2022/10/08 10:49:25;;;;;;;;;;;13.30;99.90;;;;;;5095690;28;19913;-75
2022/10/08 10:51:54;;;;;;;;;;;13.40;99.90;;;;;;5096092;28;20281;-76
2022/10/08 10:54:30;;;;;;;;;;;13.40;99.90;;;;;;5095951;28;19912;-75
2022/10/08 10:56:59;;;;;;;;;;;13.40;99.90;;;;;;5096136;28;19915;-76
2022/10/08 10:59:31;;;;;;;;;;;13.50;99.90;;;;;;5095794;28;19909;-76
2022/10/08 11:01:59;;;;;;;;;;;13.50;99.90;;;;;;5094219;28;19915;-76
2022/10/08 11:04:50;;;;;;;;;;;13.50;99.90;;;;;;5096012;28;19943;-76
2022/10/08 11:07:22;;;;;;;;;;;13.60;99.90;;;;;;5094889;28;20364;-76
2022/10/08 11:09:47;;;;;;;;;;;13.50;99.90;;;;;;5095425;28;19916;-75
2022/10/08 11:12:16;;;;;;;;;;;13.60;99.90;;;;;;5095317;28;19913;-76
2022/10/08 11:14:54;;;;;;;;;;;13.50;99.90;;;;;;5095598;28;19908;-75
2022/10/08 11:17:31;;;;;;;;;;;13.50;99.90;;;;;;5095341;28;19908;-76
2022/10/08 11:20:16;;;;;;;;;;;13.50;99.90;;;;;;5093854;28;19919;-76
2022/10/08 11:22:49;;;;;;;;;;;13.50;99.90;;;;;;5094480;28;19920;-76
2022/10/08 11:25:47;;;;;;;;;;;13.50;99.90;;;;;;5094366;28;20309;-75
2022/10/08 11:28:13;;;;;;;;;;;13.60;99.90;;;;;;5069315;28;19947;-75
2022/10/08 11:30:47;;;;;;;;;;;13.60;99.90;;;;;;5094720;28;19947;-76
2022/10/08 11:33:14;;;;;;;;;;;13.60;99.90;;;;;;5094645;28;19915;-76
2022/10/08 11:35:39;;;;;;;;;;;13.60;99.90;;;;;;5094991;28;19908;-76
2022/10/08 11:38:05;;;;;;;;;;;13.60;99.90;;;;;;5094744;28;19915;-76
2022/10/08 11:40:34;;;;;;;;;;;13.60;99.90;;;;;;5095224;28;19908;-76
2022/10/08 11:43:06;;;;;;;;;;;13.60;99.90;;;;;;5094474;28;19915;-74
2022/10/08 11:45:34;;;;;;;;;;;13.60;99.90;;;;;;5094680;28;20284;-77
2022/10/08 11:48:01;;;;;;;;;;;13.60;99.90;;;;;;5094444;28;20404;-75
2022/10/08 11:50:26;;;;;;;;;;;13.60;99.90;;;;;;5094943;28;19912;-75
2022/10/08 11:52:53;;;;;;;;;;;13.70;99.90;;;;;;5094981;28;19912;-76
2022/10/08 11:55:23;;;;;;;;;;;13.70;99.90;;;;;;5094276;28;20466;-76
2022/10/08 11:57:54;;;;;;;;;;;13.80;99.90;;;;;;5094643;28;20006;-76
2022/10/08 12:00:38;;;;;;;;;;;13.80;99.90;;;;;;5094253;28;20083;-76
2022/10/08 12:03:06;;;;;;;;;;;13.80;99.90;;;;;;5094032;28;20256;-76
2022/10/08 12:05:42;;;;;;;;;;;13.80;99.90;;;;;;5094771;28;19909;-75
2022/10/08 12:08:08;;;;;;;;;;;13.90;99.90;;;;;;5094152;28;19912;-76
2022/10/08 12:10:35;;;;;;;;;;;14.00;99.90;;;;;;5093677;28;20379;-75
2022/10/08 12:13:03;;;;;;;;;;;14.00;99.90;;;;;;5094182;28;19912;-76
2022/10/08 12:15:32;;;;;;;;;;;14.00;99.90;;;;;;5094931;28;19908;-75
2022/10/08 12:18:24;;;;;;;;;;;14.10;99.90;;;;;;5094510;28;19913;-76
2022/10/08 12:21:08;;;;;;;;;;;14.10;99.90;;;;;;5087918;28;19908;-75
2022/10/08 12:23:34;;;;;;;;;;;14.10;99.90;;;;;;5094070;28;19912;-76
2022/10/08 12:25:59;;;;;;;;;;;14.10;99.90;;;;;;5094341;28;19961;-76
2022/10/08 12:28:27;;;;;;;;;;;14.20;99.90;;;;;;5093766;28;19916;-76
2022/10/08 12:30:55;;;;;;;;;;;14.20;99.90;;;;;;5093863;28;20280;-76
2022/10/08 12:33:21;;;;;;;;;;;14.30;99.90;;;;;;5093714;28;19951;-76
2022/10/08 12:35:57;;;;;;;;;;;14.30;99.90;;;;;;5092930;28;19908;-76
2022/10/08 12:38:35;;;;;;;;;;;14.40;99.90;;;;;;5093434;28;19908;-76
2022/10/08 12:41:04;;;;;;;;;;;14.40;99.90;;;;;;5093935;28;19908;-75
2022/10/08 12:43:42;;;;;;;;;;;14.30;99.90;;;;;;5092993;28;19926;-76
2022/10/08 12:46:32;;;;;;;;;;;14.30;99.90;;;;;;5121343;27;19916;-75
2022/10/08 12:49:00;;;;;;;;;;;14.40;99.90;;;;;;5093976;28;19912;-75
2022/10/08 12:51:33;;;;;;;;;;;14.40;99.90;;;;;;5092383;28;21830;-75
2022/10/08 12:53:59;;;;;;;;;;;14.40;99.90;;;;;;5092216;28;19912;-76
2022/10/08 12:56:26;;;;;;;;;;;14.40;99.90;;;;;;5092250;28;19970;-75
2022/10/08 12:58:54;;;;;;;;;;;14.40;99.90;;;;;;5093662;28;19970;-76
2022/10/08 13:01:20;;;;;;;;;;;14.40;99.90;;;;;;5092974;28;19931;-76
2022/10/08 13:03:45;;;;;;;;;;;14.50;99.90;;;;;;5093649;28;20365;-76
2022/10/08 13:06:15;;;;;;;;;;;14.40;99.90;;;;;;5091329;28;19927;-75
2022/10/08 13:08:41;;;;;;;;;;;14.50;99.90;;;;;;5092736;28;19918;-76
2022/10/08 13:11:11;;;;;;;;;;;14.60;99.90;;;;;;5092264;28;19927;-76
2022/10/08 13:13:39;;;;;;;;;;;14.70;99.90;;;;;;5091328;28;20423;-75
2022/10/08 13:16:07;;;;;;;;;;;14.80;99.90;;;;;;5092291;28;20262;-75
2022/10/08 13:18:34;;;;;;;;;;;14.90;99.90;;;;;;5092766;28;20013;-76
2022/10/08 13:21:02;;;;;;;;;;;15.10;99.90;;;;;;5092533;28;19988;-76
2022/10/08 13:23:32;;;;;;;;;;;15.10;99.90;;;;;;5092109;28;19931;-76
2022/10/08 13:25:59;;;;;;;;;;;15.10;99.90;;;;;;5093295;28;20105;-77
2022/10/08 13:28:25;;;;;;;;;;;15.00;99.90;;;;;;5092755;28;19904;-76
2022/10/08 13:30:55;;;;;;;;;;;15.00;99.90;;;;;;5093218;28;19916;-75
2022/10/08 13:33:22;;;;;;;;;;;15.00;99.90;;;;;;5092360;28;20003;-77
2022/10/08 13:35:58;;;;;;;;;;;15.10;99.90;;;;;;5092304;28;20053;-76
2022/10/08 13:38:25;;;;;;;;;;;15.10;99.90;;;;;;5072214;28;20717;-76
2022/10/08 13:40:57;;;;;;;;;;;15.20;99.90;;;;;;5086393;28;19919;-76
2022/10/08 13:43:24;;;;;;;;;;;15.30;99.90;;;;;;5089492;28;20054;-76
2022/10/08 13:45:50;;;;;;;;;;;15.40;99.90;;;;;;5092910;28;19912;-76
2022/10/08 13:48:15;;;;;;;;;;;15.50;99.90;;;;;;5092451;28;19908;-75
2022/10/08 13:50:44;;;;;;;;;;;15.50;99.90;;;;;;5091761;28;19919;-75
2022/10/08 13:53:11;;;;;;;;;;;15.50;99.90;;;;;;5092370;28;19974;-75
2022/10/08 13:55:37;;;;;;;;;;;15.40;99.90;;;;;;5092743;28;19908;-76
2022/10/08 13:58:04;;;;;;;;;;;15.40;99.90;;;;;;5092871;28;19908;-76
2022/10/08 14:00:30;;;;;;;;;;;15.40;99.90;;;;;;5090784;28;19909;-76
2022/10/08 14:02:56;;;;;;;;;;;15.40;99.90;;;;;;5092895;28;19912;-76
2022/10/08 14:05:22;;;;;;;;;;;15.30;99.90;;;;;;5092278;28;19977;-76
2022/10/08 14:07:53;;;;;;;;;;;15.30;99.90;;;;;;5094650;28;19912;-75
2022/10/08 14:10:19;;;;;;;;;;;15.30;99.90;;;;;;5096367;28;19958;-75
2022/10/08 14:12:45;;;;;;;;;;;15.20;99.90;;;;;;5096939;28;20316;-76
2022/10/08 14:15:11;;;;;;;;;;;15.20;99.90;;;;;;5096411;28;19915;-76
2022/10/08 14:17:37;;;;;;;;;;;15.20;99.90;;;;;;5096978;28;19909;-76
2022/10/08 14:20:02;;;;;;;;;;;15.10;99.90;;;;;;5097326;28;19908;-76
2022/10/08 14:22:28;;;;;;;;;;;15.10;99.90;;;;;;5095221;28;20002;-76
2022/10/08 14:24:53;;;;;;;;;;;15.10;99.90;;;;;;5096707;28;19908;-75
2022/10/08 14:27:19;;;;;;;;;;;15.10;99.90;;;;;;5096525;28;19962;-76
2022/10/08 14:29:44;;;;;;;;;;;15.10;99.90;;;;;;5097285;28;19912;-76